sensor_id;sensor_type;location;lat;lon;timestamp;temperature;humidity
37786;DHT22;23625;48.784;9.336;2022-11-28T00:01:55;4.70;99.90
37786;DHT22;23625;48.784;9.336;2022-11-28T00:04:21;4.70;99.90
37786;DHT22;23625;48.784;9.336;2022-11-28T00:06:47;4.70;99.90
37786;DHT22;23625;48.784;9.336;2022-11-28T00:09:17;4.60;99.90
37786;DHT22;23625;48.784;9.336;2022-11-28T00:11:45;4.70;99.90
37786;DHT22;23625;48.784;9.336;2022-11-28T00:14:11;4.80;99.90
37786;DHT22;23625;48.784;9.336;2022-11-28T00:16:37;4.90;99.90
37786;DHT22;23625;48.784;9.336;2022-11-28T00:19:04;4.80;99.90
37786;DHT22;23625;48.784;9.336;2022-11-28T00:21:30;4.70;99.90
37786;DHT22;23625;48.784;9.336;2022-11-28T00:23:56;4.70;99.90
37786;DHT22;23625;48.784;9.336;2022-11-28T00:26:26;4.70;99.90
37786;DHT22;23625;48.784;9.336;2022-11-28T00:28:52;4.60;99.90
37786;DHT22;23625;48.784;9.336;2022-11-28T00:31:20;4.60;99.90
37786;DHT22;23625;48.784;9.336;2022-11-28T00:33:47;4.60;99.90
37786;DHT22;23625;48.784;9.336;2022-11-28T00:36:13;4.60;99.90
37786;DHT22;23625;48.784;9.336;2022-11-28T00:38:40;4.60;99.90
37786;DHT22;23625;48.784;9.336;2022-11-28T00:41:26;4.60;99.90
37786;DHT22;23625;48.784;9.336;2022-11-28T00:43:53;4.60;99.90
37786;DHT22;23625;48.784;9.336;2022-11-28T00:46:20;4.70;99.90
37786;DHT22;23625;48.784;9.336;2022-11-28T00:48:47;4.60;99.90
37786;DHT22;23625;48.784;9.336;2022-11-28T00:53:41;4.70;99.90
37786;DHT22;23625;48.784;9.336;2022-11-28T00:56:09;4.60;99.90
37786;DHT22;23625;48.784;9.336;2022-11-28T00:58:36;4.70;99.90
37786;DHT22;23625;48.784;9.336;2022-11-28T01:01:12;4.60;99.90
37786;DHT22;23625;48.784;9.336;2022-11-28T01:03:39;4.60;99.90
37786;DHT22;23625;48.784;9.336;2022-11-28T01:06:05;4.60;99.90
37786;DHT22;23625;48.784;9.336;2022-11-28T01:08:32;4.60;99.90
37786;DHT22;23625;48.784;9.336;2022-11-28T01:10:57;4.70;99.90
37786;DHT22;23625;48.784;9.336;2022-11-28T01:13:23;4.60;99.90
37786;DHT22;23625;48.784;9.336;2022-11-28T01:15:49;4.70;99.90
37786;DHT22;23625;48.784;9.336;2022-11-28T01:18:14;4.80;99.90
37786;DHT22;23625;48.784;9.336;2022-11-28T01:20:40;4.80;99.90
37786;DHT22;23625;48.784;9.336;2022-11-28T01:23:06;4.70;99.90
37786;DHT22;23625;48.784;9.336;2022-11-28T01:25:31;4.70;99.90
37786;DHT22;23625;48.784;9.336;2022-11-28T01:27:57;4.70;99.90
37786;DHT22;23625;48.784;9.336;2022-11-28T01:30:23;4.70;99.90
37786;DHT22;23625;48.784;9.336;2022-11-28T01:32:48;4.60;99.90
37786;DHT22;23625;48.784;9.336;2022-11-28T01:35:14;4.60;99.90
37786;DHT22;23625;48.784;9.336;2022-11-28T01:37:39;4.60;99.90
37786;DHT22;23625;48.784;9.336;2022-11-28T01:40:06;4.50;99.90
37786;DHT22;23625;48.784;9.336;2022-11-28T01:42:31;4.50;99.90
37786;DHT22;23625;48.784;9.336;2022-11-28T01:45:06;4.50;99.90
37786;DHT22;23625;48.784;9.336;2022-11-28T01:47:33;4.50;99.90
37786;DHT22;23625;48.784;9.336;2022-11-28T01:49:59;4.50;99.90
37786;DHT22;23625;48.784;9.336;2022-11-28T01:52:25;4.50;99.90
37786;DHT22;23625;48.784;9.336;2022-11-28T01:54:54;4.50;99.90
37786;DHT22;23625;48.784;9.336;2022-11-28T01:57:23;4.50;99.90
37786;DHT22;23625;48.784;9.336;2022-11-28T02:00:02;4.40;99.90
37786;DHT22;23625;48.784;9.336;2022-11-28T02:02:33;4.50;99.90
37786;DHT22;23625;48.784;9.336;2022-11-28T02:05:00;4.40;99.90
37786;DHT22;23625;48.784;9.336;2022-11-28T02:07:26;4.50;99.90
37786;DHT22;23625;48.784;9.336;2022-11-28T02:09:52;4.40;99.90
37786;DHT22;23625;48.784;9.336;2022-11-28T02:13:12;4.50;99.90
37786;DHT22;23625;48.784;9.336;2022-11-28T02:32:08;4.40;99.90
37786;DHT22;23625;48.784;9.336;2022-11-28T02:48:43;4.30;99.90
37786;DHT22;23625;48.784;9.336;2022-11-28T02:51:14;4.30;99.90
37786;DHT22;23625;48.784;9.336;2022-11-28T02:53:42;4.30;99.90
37786;DHT22;23625;48.784;9.336;2022-11-28T02:56:10;4.40;99.90
37786;DHT22;23625;48.784;9.336;2022-11-28T02:58:37;4.30;99.90
37786;DHT22;23625;48.784;9.336;2022-11-28T03:01:03;4.30;99.90
37786;DHT22;23625;48.784;9.336;2022-11-28T03:03:51;4.30;99.90
37786;DHT22;23625;48.784;9.336;2022-11-28T03:19:35;4.40;99.90
37786;DHT22;23625;48.784;9.336;2022-11-28T03:30:46;4.30;99.90
37786;DHT22;23625;48.784;9.336;2022-11-28T03:33:15;4.40;99.90
37786;DHT22;23625;48.784;9.336;2022-11-28T03:35:47;4.30;99.90
37786;DHT22;23625;48.784;9.336;2022-11-28T03:38:26;4.30;99.90
37786;DHT22;23625;48.784;9.336;2022-11-28T03:40:56;4.30;99.90
37786;DHT22;23625;48.784;9.336;2022-11-28T03:43:29;4.50;99.90
37786;DHT22;23625;48.784;9.336;2022-11-28T03:46:02;4.50;99.90
37786;DHT22;23625;48.784;9.336;2022-11-28T03:48:34;4.40;99.90
37786;DHT22;23625;48.784;9.336;2022-11-28T03:51:13;4.30;99.90
37786;DHT22;23625;48.784;9.336;2022-11-28T03:53:52;4.60;99.90
37786;DHT22;23625;48.784;9.336;2022-11-28T03:56:45;4.50;99.90
37786;DHT22;23625;48.784;9.336;2022-11-28T03:59:12;4.40;99.90
37786;DHT22;23625;48.784;9.336;2022-11-28T04:08:01;4.30;99.90
37786;DHT22;23625;48.784;9.336;2022-11-28T04:13:47;4.30;99.90
37786;DHT22;23625;48.784;9.336;2022-11-28T04:16:30;4.20;99.90
37786;DHT22;23625;48.784;9.336;2022-11-28T04:24:22;4.30;99.90
37786;DHT22;23625;48.784;9.336;2022-11-28T04:26:55;4.40;99.90
37786;DHT22;23625;48.784;9.336;2022-11-28T04:29:23;4.30;99.90
37786;DHT22;23625;48.784;9.336;2022-11-28T04:31:52;4.30;99.90
37786;DHT22;23625;48.784;9.336;2022-11-28T04:34:20;4.20;99.90
37786;DHT22;23625;48.784;9.336;2022-11-28T04:36:48;4.20;99.90
37786;DHT22;23625;48.784;9.336;2022-11-28T04:39:18;4.20;99.90
37786;DHT22;23625;48.784;9.336;2022-11-28T04:41:58;4.20;99.90
37786;DHT22;23625;48.784;9.336;2022-11-28T04:44:37;4.10;99.90
37786;DHT22;23625;48.784;9.336;2022-11-28T04:47:04;4.20;99.90
37786;DHT22;23625;48.784;9.336;2022-11-28T04:49:30;4.10;99.90
37786;DHT22;23625;48.784;9.336;2022-11-28T04:55:18;4.10;99.90
37786;DHT22;23625;48.784;9.336;2022-11-28T04:57:48;4.10;99.90
37786;DHT22;23625;48.784;9.336;2022-11-28T05:00:18;4.10;99.90
37786;DHT22;23625;48.784;9.336;2022-11-28T05:02:45;4.10;99.90
37786;DHT22;23625;48.784;9.336;2022-11-28T05:05:18;4.10;99.90
37786;DHT22;23625;48.784;9.336;2022-11-28T05:07:43;4.10;99.90
37786;DHT22;23625;48.784;9.336;2022-11-28T05:10:11;4.20;99.90
37786;DHT22;23625;48.784;9.336;2022-11-28T05:12:37;4.20;99.90
37786;DHT22;23625;48.784;9.336;2022-11-28T05:15:03;4.20;99.90
37786;DHT22;23625;48.784;9.336;2022-11-28T05:17:29;4.20;99.90
37786;DHT22;23625;48.784;9.336;2022-11-28T05:19:55;4.40;99.90
37786;DHT22;23625;48.784;9.336;2022-11-28T05:22:20;4.40;99.90
37786;DHT22;23625;48.784;9.336;2022-11-28T05:24:46;4.60;99.90
37786;DHT22;23625;48.784;9.336;2022-11-28T05:27:12;4.70;99.90
37786;DHT22;23625;48.784;9.336;2022-11-28T05:29:37;5.10;99.90
37786;DHT22;23625;48.784;9.336;2022-11-28T05:32:10;5.20;99.90
37786;DHT22;23625;48.784;9.336;2022-11-28T05:34:36;5.30;99.90
37786;DHT22;23625;48.784;9.336;2022-11-28T05:37:02;5.40;99.90
37786;DHT22;23625;48.784;9.336;2022-11-28T05:39:28;5.60;99.90
37786;DHT22;23625;48.784;9.336;2022-11-28T05:41:54;5.60;99.90
37786;DHT22;23625;48.784;9.336;2022-11-28T05:44:20;5.70;99.90
37786;DHT22;23625;48.784;9.336;2022-11-28T05:46:46;5.70;99.90
37786;DHT22;23625;48.784;9.336;2022-11-28T05:49:11;5.70;99.90
37786;DHT22;23625;48.784;9.336;2022-11-28T05:51:37;5.80;99.90
37786;DHT22;23625;48.784;9.336;2022-11-28T05:54:03;5.80;99.90
37786;DHT22;23625;48.784;9.336;2022-11-28T05:56:29;5.80;99.90
37786;DHT22;23625;48.784;9.336;2022-11-28T05:58:55;5.80;99.90
37786;DHT22;23625;48.784;9.336;2022-11-28T06:01:24;5.80;99.90
37786;DHT22;23625;48.784;9.336;2022-11-28T06:03:51;5.80;99.90
37786;DHT22;23625;48.784;9.336;2022-11-28T06:06:22;5.80;99.90
37786;DHT22;23625;48.784;9.336;2022-11-28T06:08:50;5.80;99.90
37786;DHT22;23625;48.784;9.336;2022-11-28T06:11:18;5.80;99.90
37786;DHT22;23625;48.784;9.336;2022-11-28T06:13:45;5.80;99.90
37786;DHT22;23625;48.784;9.336;2022-11-28T06:16:14;5.80;99.90
37786;DHT22;23625;48.784;9.336;2022-11-28T06:18:40;5.80;99.90
37786;DHT22;23625;48.784;9.336;2022-11-28T06:21:08;5.80;99.90
37786;DHT22;23625;48.784;9.336;2022-11-28T06:23:34;5.80;99.90
37786;DHT22;23625;48.784;9.336;2022-11-28T06:26:08;5.90;99.90
37786;DHT22;23625;48.784;9.336;2022-11-28T06:28:34;5.80;99.90
37786;DHT22;23625;48.784;9.336;2022-11-28T06:31:00;5.90;99.90
37786;DHT22;23625;48.784;9.336;2022-11-28T06:33:25;5.80;99.90
37786;DHT22;23625;48.784;9.336;2022-11-28T06:35:51;5.80;99.90
37786;DHT22;23625;48.784;9.336;2022-11-28T06:38:17;5.80;99.90
37786;DHT22;23625;48.784;9.336;2022-11-28T06:40:42;5.80;99.90
37786;DHT22;23625;48.784;9.336;2022-11-28T06:43:08;5.70;99.90
37786;DHT22;23625;48.784;9.336;2022-11-28T06:45:33;5.70;99.90
37786;DHT22;23625;48.784;9.336;2022-11-28T06:48:00;5.70;99.90
37786;DHT22;23625;48.784;9.336;2022-11-28T06:50:25;5.70;99.90
37786;DHT22;23625;48.784;9.336;2022-11-28T06:52:53;5.60;99.90
37786;DHT22;23625;48.784;9.336;2022-11-28T06:55:19;5.60;99.90
37786;DHT22;23625;48.784;9.336;2022-11-28T06:57:44;5.60;99.90
37786;DHT22;23625;48.784;9.336;2022-11-28T07:00:10;5.50;99.90
37786;DHT22;23625;48.784;9.336;2022-11-28T07:02:36;5.50;99.90
37786;DHT22;23625;48.784;9.336;2022-11-28T07:05:02;5.50;99.90
37786;DHT22;23625;48.784;9.336;2022-11-28T07:07:28;5.40;99.90
37786;DHT22;23625;48.784;9.336;2022-11-28T07:09:53;5.40;99.90
37786;DHT22;23625;48.784;9.336;2022-11-28T07:12:19;5.40;99.90
37786;DHT22;23625;48.784;9.336;2022-11-28T07:14:45;5.40;99.90
37786;DHT22;23625;48.784;9.336;2022-11-28T07:17:10;5.40;99.90
37786;DHT22;23625;48.784;9.336;2022-11-28T07:19:36;5.30;99.90
37786;DHT22;23625;48.784;9.336;2022-11-28T07:22:02;5.30;99.90
37786;DHT22;23625;48.784;9.336;2022-11-28T07:24:28;5.30;99.90
37786;DHT22;23625;48.784;9.336;2022-11-28T07:26:54;5.30;99.90
37786;DHT22;23625;48.784;9.336;2022-11-28T07:29:21;5.30;99.90
37786;DHT22;23625;48.784;9.336;2022-11-28T07:31:49;5.20;99.90
37786;DHT22;23625;48.784;9.336;2022-11-28T07:34:14;5.20;99.90
37786;DHT22;23625;48.784;9.336;2022-11-28T07:36:40;5.10;99.90
37786;DHT22;23625;48.784;9.336;2022-11-28T07:39:07;5.00;99.90
37786;DHT22;23625;48.784;9.336;2022-11-28T07:41:33;5.00;99.90
37786;DHT22;23625;48.784;9.336;2022-11-28T07:44:00;4.90;99.90
37786;DHT22;23625;48.784;9.336;2022-11-28T07:46:27;4.90;99.90
37786;DHT22;23625;48.784;9.336;2022-11-28T07:48:53;5.00;99.90
37786;DHT22;23625;48.784;9.336;2022-11-28T07:51:21;5.00;99.90
37786;DHT22;23625;48.784;9.336;2022-11-28T07:53:47;5.00;99.90
37786;DHT22;23625;48.784;9.336;2022-11-28T07:56:15;5.00;99.90
37786;DHT22;23625;48.784;9.336;2022-11-28T07:58:43;5.10;99.90
37786;DHT22;23625;48.784;9.336;2022-11-28T08:01:16;5.00;99.90
37786;DHT22;23625;48.784;9.336;2022-11-28T08:03:42;5.00;99.90
37786;DHT22;23625;48.784;9.336;2022-11-28T08:06:14;5.00;99.90
37786;DHT22;23625;48.784;9.336;2022-11-28T08:08:41;5.10;99.90
37786;DHT22;23625;48.784;9.336;2022-11-28T08:11:08;5.10;99.90
37786;DHT22;23625;48.784;9.336;2022-11-28T08:13:36;5.10;99.90
37786;DHT22;23625;48.784;9.336;2022-11-28T08:16:11;5.20;99.90
37786;DHT22;23625;48.784;9.336;2022-11-28T08:18:37;5.20;99.90
37786;DHT22;23625;48.784;9.336;2022-11-28T08:21:05;5.20;99.90
37786;DHT22;23625;48.784;9.336;2022-11-28T08:23:33;5.20;99.90
37786;DHT22;23625;48.784;9.336;2022-11-28T08:26:03;5.20;99.90
37786;DHT22;23625;48.784;9.336;2022-11-28T08:28:29;5.30;99.90
37786;DHT22;23625;48.784;9.336;2022-11-28T08:30:56;5.20;99.90
37786;DHT22;23625;48.784;9.336;2022-11-28T08:33:24;5.20;99.90
37786;DHT22;23625;48.784;9.336;2022-11-28T08:35:50;5.30;99.90
37786;DHT22;23625;48.784;9.336;2022-11-28T08:38:17;5.40;99.90
37786;DHT22;23625;48.784;9.336;2022-11-28T08:40:42;5.50;99.90
37786;DHT22;23625;48.784;9.336;2022-11-28T08:43:08;5.60;99.90
37786;DHT22;23625;48.784;9.336;2022-11-28T08:45:35;5.70;99.90
37786;DHT22;23625;48.784;9.336;2022-11-28T08:48:01;5.70;99.90
37786;DHT22;23625;48.784;9.336;2022-11-28T08:50:27;5.80;99.90
37786;DHT22;23625;48.784;9.336;2022-11-28T08:52:53;5.80;99.90
37786;DHT22;23625;48.784;9.336;2022-11-28T08:55:18;5.90;99.90
37786;DHT22;23625;48.784;9.336;2022-11-28T08:57:44;5.90;99.90
37786;DHT22;23625;48.784;9.336;2022-11-28T09:00:10;6.00;99.90
37786;DHT22;23625;48.784;9.336;2022-11-28T09:02:36;6.00;99.90
37786;DHT22;23625;48.784;9.336;2022-11-28T09:05:01;6.10;99.90
37786;DHT22;23625;48.784;9.336;2022-11-28T09:07:27;6.10;99.90
37786;DHT22;23625;48.784;9.336;2022-11-28T09:09:52;6.20;99.90
37786;DHT22;23625;48.784;9.336;2022-11-28T09:12:18;6.30;99.90
37786;DHT22;23625;48.784;9.336;2022-11-28T09:14:44;6.40;99.90
37786;DHT22;23625;48.784;9.336;2022-11-28T09:17:09;6.50;99.90
37786;DHT22;23625;48.784;9.336;2022-11-28T09:19:35;6.70;99.90
37786;DHT22;23625;48.784;9.336;2022-11-28T09:22:00;6.80;99.90
37786;DHT22;23625;48.784;9.336;2022-11-28T09:24:26;6.90;99.90
37786;DHT22;23625;48.784;9.336;2022-11-28T09:26:52;6.90;99.90
37786;DHT22;23625;48.784;9.336;2022-11-28T09:29:17;7.00;99.90
37786;DHT22;23625;48.784;9.336;2022-11-28T09:31:43;7.00;99.90
37786;DHT22;23625;48.784;9.336;2022-11-28T09:34:08;7.00;99.90
37786;DHT22;23625;48.784;9.336;2022-11-28T09:36:34;7.00;99.90
37786;DHT22;23625;48.784;9.336;2022-11-28T09:39:00;7.10;99.90
37786;DHT22;23625;48.784;9.336;2022-11-28T09:41:40;7.00;99.90
37786;DHT22;23625;48.784;9.336;2022-11-28T09:46:45;7.20;99.90
37786;DHT22;23625;48.784;9.336;2022-11-28T09:49:34;7.20;99.90
37786;DHT22;23625;48.784;9.336;2022-11-28T09:52:05;7.30;99.90
37786;DHT22;23625;48.784;9.336;2022-11-28T09:54:41;7.30;99.90
37786;DHT22;23625;48.784;9.336;2022-11-28T09:57:17;7.40;99.90
37786;DHT22;23625;48.784;9.336;2022-11-28T09:59:44;7.40;99.90
37786;DHT22;23625;48.784;9.336;2022-11-28T10:05:22;7.50;99.90
37786;DHT22;23625;48.784;9.336;2022-11-28T10:08:02;7.50;99.90
37786;DHT22;23625;48.784;9.336;2022-11-28T10:13:10;7.50;99.90
37786;DHT22;23625;48.784;9.336;2022-11-28T10:20:39;7.50;99.90
37786;DHT22;23625;48.784;9.336;2022-11-28T10:24:00;7.60;99.90
37786;DHT22;23625;48.784;9.336;2022-11-28T10:28:52;7.60;99.90
37786;DHT22;23625;48.784;9.336;2022-11-28T10:31:40;7.70;99.90
37786;DHT22;23625;48.784;9.336;2022-11-28T10:34:13;7.70;99.90
37786;DHT22;23625;48.784;9.336;2022-11-28T10:36:57;7.70;99.90
37786;DHT22;23625;48.784;9.336;2022-11-28T10:39:25;7.70;99.90
37786;DHT22;23625;48.784;9.336;2022-11-28T10:45:16;7.70;99.90
37786;DHT22;23625;48.784;9.336;2022-11-28T10:50:52;7.80;99.90
37786;DHT22;23625;48.784;9.336;2022-11-28T10:53:45;7.90;99.90
37786;DHT22;23625;48.784;9.336;2022-11-28T10:59:00;7.90;99.90
37786;DHT22;23625;48.784;9.336;2022-11-28T11:01:35;7.90;99.90
37786;DHT22;23625;48.784;9.336;2022-11-28T11:04:02;7.90;99.90
37786;DHT22;23625;48.784;9.336;2022-11-28T11:06:28;8.00;99.90
37786;DHT22;23625;48.784;9.336;2022-11-28T11:08:53;8.00;99.90
37786;DHT22;23625;48.784;9.336;2022-11-28T11:11:25;8.10;99.90
37786;DHT22;23625;48.784;9.336;2022-11-28T11:13:56;8.10;99.90
37786;DHT22;23625;48.784;9.336;2022-11-28T11:16:22;8.20;99.90
37786;DHT22;23625;48.784;9.336;2022-11-28T11:18:52;8.20;99.90
37786;DHT22;23625;48.784;9.336;2022-11-28T11:23:45;8.30;99.90
37786;DHT22;23625;48.784;9.336;2022-11-28T11:26:39;8.40;99.90
37786;DHT22;23625;48.784;9.336;2022-11-28T11:29:05;8.50;99.90
37786;DHT22;23625;48.784;9.336;2022-11-28T11:31:42;8.50;99.90
37786;DHT22;23625;48.784;9.336;2022-11-28T11:34:19;8.50;99.90
37786;DHT22;23625;48.784;9.336;2022-11-28T11:36:46;8.50;99.90
37786;DHT22;23625;48.784;9.336;2022-11-28T11:41:42;8.50;99.90
37786;DHT22;23625;48.784;9.336;2022-11-28T11:47:07;8.60;99.90
37786;DHT22;23625;48.784;9.336;2022-11-28T11:49:38;8.60;99.90
37786;DHT22;23625;48.784;9.336;2022-11-28T11:52:20;8.60;99.90
37786;DHT22;23625;48.784;9.336;2022-11-28T11:57:35;8.70;99.90
37786;DHT22;23625;48.784;9.336;2022-11-28T12:02:43;8.80;99.90
37786;DHT22;23625;48.784;9.336;2022-11-28T12:05:17;8.80;99.90
37786;DHT22;23625;48.784;9.336;2022-11-28T12:08:19;8.70;99.90
37786;DHT22;23625;48.784;9.336;2022-11-28T12:11:05;8.80;99.90
37786;DHT22;23625;48.784;9.336;2022-11-28T12:13:32;8.80;99.90
37786;DHT22;23625;48.784;9.336;2022-11-28T12:19:07;8.80;99.90
37786;DHT22;23625;48.784;9.336;2022-11-28T12:22:07;8.90;99.90
37786;DHT22;23625;48.784;9.336;2022-11-28T12:30:20;8.90;99.90
37786;DHT22;23625;48.784;9.336;2022-11-28T12:35:29;8.90;99.90
37786;DHT22;23625;48.784;9.336;2022-11-28T13:00:19;8.90;99.90
37786;DHT22;23625;48.784;9.336;2022-11-28T13:03:09;8.90;99.90
37786;DHT22;23625;48.784;9.336;2022-11-28T13:08:45;8.90;99.90
37786;DHT22;23625;48.784;9.336;2022-11-28T13:11:19;8.90;99.90
37786;DHT22;23625;48.784;9.336;2022-11-28T13:21:51;8.80;99.90
37786;DHT22;23625;48.784;9.336;2022-11-28T13:32:48;8.80;99.90
37786;DHT22;23625;48.784;9.336;2022-11-28T13:35:18;8.90;99.90
37786;DHT22;23625;48.784;9.336;2022-11-28T13:40:42;8.90;99.90
37786;DHT22;23625;48.784;9.336;2022-11-28T13:45:56;8.90;99.90
37786;DHT22;23625;48.784;9.336;2022-11-28T13:53:42;9.00;99.90
37786;DHT22;23625;48.784;9.336;2022-11-28T13:58:39;9.00;99.90
37786;DHT22;23625;48.784;9.336;2022-11-28T14:01:14;9.00;99.90
37786;DHT22;23625;48.784;9.336;2022-11-28T14:06:48;9.00;99.90
37786;DHT22;23625;48.784;9.336;2022-11-28T14:25:40;8.80;99.90
37786;DHT22;23625;48.784;9.336;2022-11-28T14:28:18;8.80;99.90
37786;DHT22;23625;48.784;9.336;2022-11-28T14:30:45;8.80;99.90
37786;DHT22;23625;48.784;9.336;2022-11-28T14:33:39;8.70;99.90
37786;DHT22;23625;48.784;9.336;2022-11-28T14:49:47;8.60;99.90
37786;DHT22;23625;48.784;9.336;2022-11-28T14:54:42;8.60;99.90
37786;DHT22;23625;48.784;9.336;2022-11-28T15:00:48;8.50;99.90
37786;DHT22;23625;48.784;9.336;2022-11-28T15:03:40;8.50;99.90
37786;DHT22;23625;48.784;9.336;2022-11-28T15:09:00;8.50;99.90
37786;DHT22;23625;48.784;9.336;2022-11-28T15:14:24;8.50;99.90
37786;DHT22;23625;48.784;9.336;2022-11-28T15:16:54;8.50;99.90
37786;DHT22;23625;48.784;9.336;2022-11-28T15:19:31;8.40;99.90
37786;DHT22;23625;48.784;9.336;2022-11-28T15:21:58;8.40;99.90
37786;DHT22;23625;48.784;9.336;2022-11-28T15:24:32;8.40;99.90
37786;DHT22;23625;48.784;9.336;2022-11-28T15:29:39;8.30;99.90
37786;DHT22;23625;48.784;9.336;2022-11-28T15:32:05;8.20;99.90
37786;DHT22;23625;48.784;9.336;2022-11-28T15:34:33;8.20;99.90
37786;DHT22;23625;48.784;9.336;2022-11-28T15:37:01;8.20;99.90
37786;DHT22;23625;48.784;9.336;2022-11-28T15:39:31;8.20;99.90
37786;DHT22;23625;48.784;9.336;2022-11-28T15:42:01;8.10;99.90
37786;DHT22;23625;48.784;9.336;2022-11-28T15:44:28;8.10;99.90
37786;DHT22;23625;48.784;9.336;2022-11-28T15:46:54;8.10;99.90
37786;DHT22;23625;48.784;9.336;2022-11-28T15:49:28;8.10;99.90
37786;DHT22;23625;48.784;9.336;2022-11-28T15:51:57;8.00;99.90
37786;DHT22;23625;48.784;9.336;2022-11-28T15:54:30;8.00;99.90
37786;DHT22;23625;48.784;9.336;2022-11-28T15:56:57;8.00;99.90
37786;DHT22;23625;48.784;9.336;2022-11-28T15:59:23;7.90;99.90
37786;DHT22;23625;48.784;9.336;2022-11-28T16:01:49;7.90;99.90
37786;DHT22;23625;48.784;9.336;2022-11-28T16:04:16;7.90;99.90
37786;DHT22;23625;48.784;9.336;2022-11-28T16:06:48;7.90;99.90
37786;DHT22;23625;48.784;9.336;2022-11-28T16:11:45;7.90;99.90
37786;DHT22;23625;48.784;9.336;2022-11-28T16:14:23;7.90;99.90
37786;DHT22;23625;48.784;9.336;2022-11-28T16:16:50;7.80;99.90
37786;DHT22;23625;48.784;9.336;2022-11-28T16:21:55;7.80;99.90
37786;DHT22;23625;48.784;9.336;2022-11-28T16:24:32;7.80;99.90
37786;DHT22;23625;48.784;9.336;2022-11-28T16:27:21;7.70;99.90
37786;DHT22;23625;48.784;9.336;2022-11-28T16:29:47;7.70;99.90
37786;DHT22;23625;48.784;9.336;2022-11-28T16:34:56;7.70;99.90
37786;DHT22;23625;48.784;9.336;2022-11-28T16:37:26;7.60;99.90
37786;DHT22;23625;48.784;9.336;2022-11-28T16:40:14;7.60;99.90
37786;DHT22;23625;48.784;9.336;2022-11-28T16:42:41;7.60;99.90
37786;DHT22;23625;48.784;9.336;2022-11-28T16:45:19;7.60;99.90
37786;DHT22;23625;48.784;9.336;2022-11-28T16:47:45;7.60;99.90
37786;DHT22;23625;48.784;9.336;2022-11-28T16:50:18;7.60;99.90
37786;DHT22;23625;48.784;9.336;2022-11-28T16:52:46;7.50;99.90
37786;DHT22;23625;48.784;9.336;2022-11-28T17:00:38;7.50;99.90
37786;DHT22;23625;48.784;9.336;2022-11-28T17:03:05;7.50;99.90
37786;DHT22;23625;48.784;9.336;2022-11-28T17:05:31;7.50;99.90
37786;DHT22;23625;48.784;9.336;2022-11-28T17:07:57;7.50;99.90
37786;DHT22;23625;48.784;9.336;2022-11-28T17:10:23;7.50;99.90
37786;DHT22;23625;48.784;9.336;2022-11-28T17:12:50;7.50;99.90
37786;DHT22;23625;48.784;9.336;2022-11-28T17:15:18;7.50;99.90
37786;DHT22;23625;48.784;9.336;2022-11-28T17:17:44;7.40;99.90
37786;DHT22;23625;48.784;9.336;2022-11-28T17:20:13;7.40;99.90
37786;DHT22;23625;48.784;9.336;2022-11-28T17:22:41;7.40;99.90
37786;DHT22;23625;48.784;9.336;2022-11-28T17:25:15;7.30;99.90
37786;DHT22;23625;48.784;9.336;2022-11-28T17:27:41;7.30;99.90
37786;DHT22;23625;48.784;9.336;2022-11-28T17:30:12;7.30;99.90
37786;DHT22;23625;48.784;9.336;2022-11-28T17:32:38;7.30;99.90
37786;DHT22;23625;48.784;9.336;2022-11-28T17:35:22;7.30;99.90
37786;DHT22;23625;48.784;9.336;2022-11-28T17:37:48;7.30;99.90
37786;DHT22;23625;48.784;9.336;2022-11-28T17:40:13;7.30;99.90
37786;DHT22;23625;48.784;9.336;2022-11-28T17:42:58;7.30;99.90
37786;DHT22;23625;48.784;9.336;2022-11-28T17:45:24;7.30;99.90
37786;DHT22;23625;48.784;9.336;2022-11-28T17:47:50;7.30;99.90
37786;DHT22;23625;48.784;9.336;2022-11-28T17:50:16;7.30;99.90
37786;DHT22;23625;48.784;9.336;2022-11-28T17:52:42;7.20;99.90
37786;DHT22;23625;48.784;9.336;2022-11-28T17:55:08;7.20;99.90
37786;DHT22;23625;48.784;9.336;2022-11-28T17:57:34;7.20;99.90
37786;DHT22;23625;48.784;9.336;2022-11-28T18:00:01;7.20;99.90
37786;DHT22;23625;48.784;9.336;2022-11-28T18:02:26;7.20;99.90
37786;DHT22;23625;48.784;9.336;2022-11-28T18:04:52;7.10;99.90
37786;DHT22;23625;48.784;9.336;2022-11-28T18:07:18;7.10;99.90
37786;DHT22;23625;48.784;9.336;2022-11-28T18:09:43;7.10;99.90
37786;DHT22;23625;48.784;9.336;2022-11-28T18:12:09;7.20;99.90
37786;DHT22;23625;48.784;9.336;2022-11-28T18:14:35;7.10;99.90
37786;DHT22;23625;48.784;9.336;2022-11-28T18:17:00;7.10;99.90
37786;DHT22;23625;48.784;9.336;2022-11-28T18:19:26;7.10;99.90
37786;DHT22;23625;48.784;9.336;2022-11-28T18:21:51;7.10;99.90
37786;DHT22;23625;48.784;9.336;2022-11-28T18:24:17;7.10;99.90
37786;DHT22;23625;48.784;9.336;2022-11-28T18:26:42;7.10;99.90
37786;DHT22;23625;48.784;9.336;2022-11-28T18:29:08;7.10;99.90
37786;DHT22;23625;48.784;9.336;2022-11-28T18:31:34;7.10;99.90
37786;DHT22;23625;48.784;9.336;2022-11-28T18:34:02;7.10;99.90
37786;DHT22;23625;48.784;9.336;2022-11-28T18:36:30;7.00;99.90
37786;DHT22;23625;48.784;9.336;2022-11-28T18:38:58;7.10;99.90
37786;DHT22;23625;48.784;9.336;2022-11-28T18:41:24;7.00;99.90
37786;DHT22;23625;48.784;9.336;2022-11-28T18:43:57;7.10;99.90
37786;DHT22;23625;48.784;9.336;2022-11-28T18:46:24;7.00;99.90
37786;DHT22;23625;48.784;9.336;2022-11-28T18:48:51;7.00;99.90
37786;DHT22;23625;48.784;9.336;2022-11-28T18:51:22;7.00;99.90
37786;DHT22;23625;48.784;9.336;2022-11-28T18:53:49;7.00;99.90
37786;DHT22;23625;48.784;9.336;2022-11-28T18:56:15;7.00;99.90
37786;DHT22;23625;48.784;9.336;2022-11-28T18:58:43;7.00;99.90
37786;DHT22;23625;48.784;9.336;2022-11-28T19:01:10;7.00;99.90
37786;DHT22;23625;48.784;9.336;2022-11-28T19:03:36;7.00;99.90
37786;DHT22;23625;48.784;9.336;2022-11-28T19:06:04;7.00;99.90
37786;DHT22;23625;48.784;9.336;2022-11-28T19:08:30;7.00;99.90
37786;DHT22;23625;48.784;9.336;2022-11-28T19:10:55;7.00;99.90
37786;DHT22;23625;48.784;9.336;2022-11-28T19:13:21;7.00;99.90
37786;DHT22;23625;48.784;9.336;2022-11-28T19:15:46;7.00;99.90
37786;DHT22;23625;48.784;9.336;2022-11-28T19:18:12;7.00;99.90
37786;DHT22;23625;48.784;9.336;2022-11-28T19:20:40;7.00;99.90
37786;DHT22;23625;48.784;9.336;2022-11-28T19:23:07;7.00;99.90
37786;DHT22;23625;48.784;9.336;2022-11-28T19:25:33;7.00;99.90
37786;DHT22;23625;48.784;9.336;2022-11-28T19:27:59;7.00;99.90
37786;DHT22;23625;48.784;9.336;2022-11-28T19:30:25;6.90;99.90
37786;DHT22;23625;48.784;9.336;2022-11-28T19:32:50;7.00;99.90
37786;DHT22;23625;48.784;9.336;2022-11-28T19:35:16;6.90;99.90
37786;DHT22;23625;48.784;9.336;2022-11-28T19:37:42;6.90;99.90
37786;DHT22;23625;48.784;9.336;2022-11-28T19:40:08;7.00;99.90
37786;DHT22;23625;48.784;9.336;2022-11-28T19:42:33;6.90;99.90
37786;DHT22;23625;48.784;9.336;2022-11-28T19:44:59;6.90;99.90
37786;DHT22;23625;48.784;9.336;2022-11-28T19:47:25;7.00;99.90
37786;DHT22;23625;48.784;9.336;2022-11-28T19:49:50;6.90;99.90
37786;DHT22;23625;48.784;9.336;2022-11-28T19:52:16;6.90;99.90
37786;DHT22;23625;48.784;9.336;2022-11-28T19:54:43;6.90;99.90
37786;DHT22;23625;48.784;9.336;2022-11-28T19:57:08;6.90;99.90